Time;durP1;ratioP1;P1;durP2;ratioP2;P2;SDS_P1;SDS_P2;PMS_P1;PMS_P2;Temp;Humidity;BMP_temperature;BMP_pressure;BME280_temperature;BME280_humidity;BME280_pressure;Samples;Min_cycle;Max_cycle;Signal;HPM_P1;HPM_P2
2022/05/29 00:01:20;;;;;;;2.57;0.93;;;;;;;;;;4986766;28;20216;-63
2022/05/29 00:03:48;;;;;;;2.20;0.60;;;;;;;;;;4984304;28;20240;-61
2022/05/29 00:06:15;;;;;;;2.23;1.00;;;;;;;;;;4990533;28;20210;-61
2022/05/29 00:08:43;;;;;;;0.73;0.67;;;;;;;;;;4990595;28;20288;-61
2022/05/29 00:11:13;;;;;;;1.20;0.70;;;;;;;;;;4990250;28;20206;-61
2022/05/29 00:13:40;;;;;;;3.40;0.70;;;;;;;;;;4990595;28;20300;-62
2022/05/29 00:16:08;;;;;;;1.93;0.83;;;;;;;;;;4990356;28;20343;-62
2022/05/29 00:18:37;;;;;;;0.87;0.70;;;;;;;;;;4989645;28;20650;-61
2022/05/29 00:21:06;;;;;;;2.87;0.87;;;;;;;;;;4989766;28;20206;-61
2022/05/29 00:23:37;;;;;;;1.00;0.90;;;;;;;;;;4990623;28;20255;-61
2022/05/29 00:26:04;;;;;;;1.77;0.70;;;;;;;;;;4989923;28;20225;-62
2022/05/29 00:28:32;;;;;;;0.83;0.70;;;;;;;;;;4990858;28;20205;-61
2022/05/29 00:30:59;;;;;;;1.50;0.93;;;;;;;;;;4990405;28;20458;-62
2022/05/29 00:33:26;;;;;;;4.93;1.23;;;;;;;;;;4972504;28;20238;-62
2022/05/29 00:35:53;;;;;;;3.13;1.00;;;;;;;;;;4978976;28;20206;-61
2022/05/29 00:38:20;;;;;;;1.23;0.70;;;;;;;;;;4990057;28;20276;-61
2022/05/29 00:40:52;;;;;;;2.37;1.00;;;;;;;;;;4989973;28;20209;-61
2022/05/29 00:43:19;;;;;;;3.70;0.73;;;;;;;;;;4990121;28;20581;-62
2022/05/29 00:45:49;;;;;;;1.90;0.83;;;;;;;;;;4990143;28;20213;-62
2022/05/29 00:48:17;;;;;;;0.70;0.70;;;;;;;;;;4989771;28;20194;-62
2022/05/29 00:50:44;;;;;;;1.70;0.90;;;;;;;;;;4990402;28;21099;-62
2022/05/29 00:53:14;;;;;;;0.80;0.80;;;;;;;;;;4976306;28;20670;-61
2022/05/29 00:55:42;;;;;;;2.97;0.87;;;;;;;;;;4989619;28;20202;-61
2022/05/29 00:58:09;;;;;;;3.63;1.00;;;;;;;;;;4989372;28;20431;-61
2022/05/29 01:00:36;;;;;;;7.60;1.00;;;;;;;;;;4989534;28;20229;-62
2022/05/29 01:03:05;;;;;;;1.50;0.70;;;;;;;;;;4989247;28;20218;-64
2022/05/29 01:05:34;;;;;;;1.17;0.93;;;;;;;;;;4989593;28;20245;-63
2022/05/29 01:08:02;;;;;;;1.57;0.87;;;;;;;;;;4989926;28;20661;-63
2022/05/29 01:10:33;;;;;;;0.60;0.50;;;;;;;;;;4989826;28;20213;-62
2022/05/29 01:13:06;;;;;;;1.73;0.70;;;;;;;;;;4989510;28;20279;-63
2022/05/29 01:15:35;;;;;;;0.80;0.63;;;;;;;;;;4989405;28;20214;-62
2022/05/29 01:18:11;;;;;;;1.70;0.90;;;;;;;;;;4989714;28;20225;-63
2022/05/29 01:20:49;;;;;;;5.83;0.80;;;;;;;;;;4988947;28;20901;-62
2022/05/29 01:23:33;;;;;;;3.80;1.00;;;;;;;;;;4989543;28;20619;-62
2022/05/29 01:26:19;;;;;;;3.43;1.10;;;;;;;;;;4988811;28;20221;-62
2022/05/29 01:28:51;;;;;;;2.30;0.93;;;;;;;;;;4970296;28;20210;-62
2022/05/29 01:31:24;;;;;;;1.70;0.87;;;;;;;;;;4975980;28;20320;-62
2022/05/29 01:33:57;;;;;;;2.10;0.90;;;;;;;;;;4989563;28;20267;-63
2022/05/29 01:36:28;;;;;;;1.50;0.90;;;;;;;;;;4988395;28;20520;-62
2022/05/29 01:38:57;;;;;;;1.80;0.63;;;;;;;;;;4988967;28;20226;-62
2022/05/29 01:41:25;;;;;;;2.40;0.80;;;;;;;;;;4988821;28;20205;-62
2022/05/29 01:43:57;;;;;;;3.67;0.87;;;;;;;;;;4988749;28;20479;-63
2022/05/29 01:46:26;;;;;;;6.37;0.93;;;;;;;;;;4988505;28;20210;-63
2022/05/29 01:48:56;;;;;;;1.20;0.90;;;;;;;;;;4988589;28;20205;-63
2022/05/29 01:51:25;;;;;;;1.00;0.90;;;;;;;;;;4988440;28;20577;-63
2022/05/29 01:53:54;;;;;;;0.87;0.87;;;;;;;;;;4989095;28;20813;-63
2022/05/29 01:56:23;;;;;;;1.90;1.00;;;;;;;;;;4988050;28;20340;-63
2022/05/29 01:58:52;;;;;;;1.17;0.83;;;;;;;;;;4988476;28;20233;-63
2022/05/29 02:01:22;;;;;;;3.53;1.07;;;;;;;;;;4988222;28;20239;-63
2022/05/29 02:03:51;;;;;;;0.93;0.80;;;;;;;;;;4988551;28;20217;-63
2022/05/29 02:06:21;;;;;;;1.67;0.87;;;;;;;;;;4988250;28;20210;-63
2022/05/29 02:08:50;;;;;;;1.30;0.90;;;;;;;;;;4988540;28;20268;-63
2022/05/29 02:11:20;;;;;;;0.87;0.87;;;;;;;;;;4988660;28;20218;-63
2022/05/29 02:13:49;;;;;;;4.73;0.60;;;;;;;;;;4975791;28;20217;-63
2022/05/29 02:16:17;;;;;;;2.00;0.70;;;;;;;;;;4988607;28;20612;-63
2022/05/29 02:18:48;;;;;;;4.73;1.10;;;;;;;;;;4988291;28;20295;-63
2022/05/29 02:21:18;;;;;;;3.60;0.97;;;;;;;;;;4988566;28;20672;-63
2022/05/29 02:23:47;;;;;;;2.43;1.10;;;;;;;;;;4988140;28;20202;-63
2022/05/29 02:26:16;;;;;;;1.83;0.70;;;;;;;;;;4988554;28;20229;-63
2022/05/29 02:28:46;;;;;;;1.97;0.60;;;;;;;;;;4984842;28;20204;-63
2022/05/29 02:31:17;;;;;;;1.60;1.10;;;;;;;;;;4986648;28;20759;-64
2022/05/29 02:33:57;;;;;;;2.77;0.80;;;;;;;;;;4988629;28;20210;-63
2022/05/29 02:36:29;;;;;;;2.40;0.90;;;;;;;;;;4980811;28;20213;-63
2022/05/29 02:39:13;;;;;;;0.67;0.67;;;;;;;;;;4984965;28;20225;-61
2022/05/29 02:41:46;;;;;;;4.37;1.23;;;;;;;;;;4973856;28;20272;-61
2022/05/29 02:44:17;;;;;;;2.10;0.80;;;;;;;;;;4988172;28;20205;-61
2022/05/29 02:46:46;;;;;;;1.13;0.70;;;;;;;;;;4988356;28;20214;-61
2022/05/29 02:49:18;;;;;;;0.77;0.77;;;;;;;;;;4987785;28;20816;-62
2022/05/29 02:51:49;;;;;;;2.03;0.70;;;;;;;;;;4988293;28;20205;-61
2022/05/29 02:54:21;;;;;;;3.23;0.70;;;;;;;;;;4988037;28;20206;-62
2022/05/29 02:56:48;;;;;;;1.33;1.00;;;;;;;;;;4987500;28;20210;-61
2022/05/29 02:59:15;;;;;;;2.63;0.73;;;;;;;;;;4987509;28;20827;-62
2022/05/29 03:01:45;;;;;;;0.70;0.70;;;;;;;;;;4988056;28;20217;-61
2022/05/29 03:04:21;;;;;;;1.90;0.90;;;;;;;;;;4987765;28;20217;-61
2022/05/29 03:06:52;;;;;;;1.90;1.27;;;;;;;;;;4988165;28;20304;-61
2022/05/29 03:09:29;;;;;;;0.70;0.70;;;;;;;;;;4988188;28;20206;-61
2022/05/29 03:11:56;;;;;;;1.53;0.57;;;;;;;;;;4988693;28;20220;-62
2022/05/29 03:14:29;;;;;;;1.83;0.67;;;;;;;;;;4988107;28;20202;-62
2022/05/29 03:17:06;;;;;;;2.10;0.70;;;;;;;;;;4989556;28;20668;-62
2022/05/29 03:19:37;;;;;;;1.37;0.60;;;;;;;;;;4992215;28;20233;-63
2022/05/29 03:22:09;;;;;;;2.00;0.60;;;;;;;;;;4991953;28;20580;-62
2022/05/29 03:24:41;;;;;;;1.20;1.10;;;;;;;;;;4991941;28;20210;-63
2022/05/29 03:27:10;;;;;;;1.13;0.50;;;;;;;;;;4991704;28;21004;-63
2022/05/29 03:29:41;;;;;;;4.43;0.80;;;;;;;;;;4990585;28;20759;-62
2022/05/29 03:32:09;;;;;;;2.17;0.60;;;;;;;;;;4991802;28;20915;-63
2022/05/29 03:34:37;;;;;;;1.80;1.00;;;;;;;;;;4991709;28;20209;-63
2022/05/29 03:37:06;;;;;;;3.03;0.77;;;;;;;;;;4991814;28;20208;-62
2022/05/29 03:39:33;;;;;;;1.67;0.60;;;;;;;;;;4991531;28;20244;-62
2022/05/29 03:42:00;;;;;;;1.13;0.77;;;;;;;;;;4992085;28;20218;-63
2022/05/29 03:44:27;;;;;;;1.83;0.60;;;;;;;;;;4991659;28;20212;-62
2022/05/29 03:46:54;;;;;;;0.70;0.70;;;;;;;;;;4991662;28;20209;-62
2022/05/29 03:49:22;;;;;;;4.07;1.07;;;;;;;;;;4991802;28;20272;-62
2022/05/29 03:51:50;;;;;;;0.83;0.67;;;;;;;;;;4988859;28;20213;-62
2022/05/29 03:54:17;;;;;;;3.33;0.90;;;;;;;;;;4991607;28;20213;-62
2022/05/29 03:56:44;;;;;;;1.60;1.00;;;;;;;;;;4991382;28;20210;-62
2022/05/29 03:59:12;;;;;;;0.50;0.50;;;;;;;;;;4991389;28;20617;-62
2022/05/29 04:01:39;;;;;;;1.37;0.90;;;;;;;;;;4991154;28;20268;-62
2022/05/29 04:04:06;;;;;;;0.80;0.80;;;;;;;;;;4990756;28;20629;-63
2022/05/29 04:06:34;;;;;;;0.60;0.60;;;;;;;;;;4991422;28;20275;-63
2022/05/29 04:12:07;;;;;;;1.17;0.80;;;;;;;;;;4991194;28;20217;-62
2022/05/29 04:14:35;;;;;;;0.87;0.70;;;;;;;;;;4991225;28;20216;-62
2022/05/29 04:17:02;;;;;;;4.00;0.80;;;;;;;;;;4991045;28;20217;-63
2022/05/29 04:19:29;;;;;;;2.10;0.70;;;;;;;;;;4989308;28;20218;-62
2022/05/29 04:21:56;;;;;;;3.50;1.00;;;;;;;;;;4990766;28;20206;-63
2022/05/29 04:24:25;;;;;;;2.30;0.80;;;;;;;;;;4990738;28;20205;-62
2022/05/29 04:26:52;;;;;;;1.60;0.90;;;;;;;;;;4990200;28;20233;-62
2022/05/29 04:29:19;;;;;;;0.60;0.60;;;;;;;;;;4990183;28;20209;-63
2022/05/29 04:34:27;;;;;;;7.00;0.70;;;;;;;;;;4989660;28;20646;-63
2022/05/29 04:36:54;;;;;;;2.83;0.90;;;;;;;;;;4990624;28;20837;-63
2022/05/29 04:39:21;;;;;;;4.07;0.97;;;;;;;;;;4990726;28;20237;-63
2022/05/29 04:41:50;;;;;;;2.37;0.80;;;;;;;;;;4990866;28;20241;-62
2022/05/29 04:44:17;;;;;;;1.23;0.63;;;;;;;;;;4990718;28;20209;-62
2022/05/29 04:46:44;;;;;;;0.80;0.60;;;;;;;;;;4990891;28;20210;-62
2022/05/29 04:49:11;;;;;;;3.27;0.80;;;;;;;;;;4990523;28;20206;-62
2022/05/29 04:51:38;;;;;;;5.27;0.90;;;;;;;;;;4990017;28;20757;-63
2022/05/29 04:54:06;;;;;;;1.60;0.60;;;;;;;;;;4990288;28;20218;-61
2022/05/29 04:56:33;;;;;;;0.63;0.63;;;;;;;;;;4990328;28;20221;-61
2022/05/29 04:59:01;;;;;;;0.60;0.60;;;;;;;;;;4990363;28;20234;-61
2022/05/29 05:01:28;;;;;;;1.33;0.67;;;;;;;;;;4990260;28;20209;-60
2022/05/29 05:03:55;;;;;;;2.00;0.70;;;;;;;;;;4989985;28;20202;-61
2022/05/29 05:06:22;;;;;;;2.10;0.90;;;;;;;;;;4990241;28;20209;-61
2022/05/29 05:08:49;;;;;;;3.23;0.80;;;;;;;;;;4990056;28;20253;-61
2022/05/29 05:11:16;;;;;;;1.83;1.00;;;;;;;;;;4990552;28;20338;-61
2022/05/29 05:13:43;;;;;;;4.77;1.10;;;;;;;;;;4989996;28;20217;-61
2022/05/29 05:16:12;;;;;;;2.57;1.03;;;;;;;;;;4990211;28;20224;-61
2022/05/29 05:18:39;;;;;;;2.50;0.53;;;;;;;;;;4989724;28;20233;-63
2022/05/29 05:21:07;;;;;;;1.43;0.50;;;;;;;;;;4989822;28;20236;-62
2022/05/29 05:23:34;;;;;;;0.60;0.50;;;;;;;;;;4989448;28;20226;-62
2022/05/29 05:26:01;;;;;;;2.23;0.77;;;;;;;;;;4989989;28;20237;-61
2022/05/29 05:28:28;;;;;;;1.87;0.53;;;;;;;;;;4989773;28;20288;-62
2022/05/29 05:30:55;;;;;;;0.73;0.63;;;;;;;;;;4989373;28;20257;-63
2022/05/29 05:33:24;;;;;;;1.63;0.50;;;;;;;;;;4989245;28;20221;-62
2022/05/29 05:35:51;;;;;;;2.33;0.30;;;;;;;;;;4989378;28;20647;-62
2022/05/29 05:38:18;;;;;;;0.53;0.40;;;;;;;;;;4989156;28;20198;-62
2022/05/29 05:40:46;;;;;;;1.63;0.67;;;;;;;;;;4989275;28;20209;-61
2022/05/29 05:43:13;;;;;;;1.17;0.70;;;;;;;;;;4989554;28;20221;-61
2022/05/29 05:45:41;;;;;;;0.77;0.60;;;;;;;;;;4989556;28;20229;-62
2022/05/29 05:48:08;;;;;;;2.50;0.67;;;;;;;;;;4989120;28;20221;-62
2022/05/29 05:50:38;;;;;;;3.07;1.00;;;;;;;;;;4989273;28;20290;-62
2022/05/29 05:53:05;;;;;;;2.90;0.80;;;;;;;;;;4988930;28;20746;-62
2022/05/29 05:55:32;;;;;;;2.30;0.60;;;;;;;;;;4989343;28;20270;-61
2022/05/29 05:57:59;;;;;;;6.30;1.10;;;;;;;;;;4989600;28;20263;-62
2022/05/29 06:00:27;;;;;;;2.07;0.30;;;;;;;;;;4989227;28;20307;-61
2022/05/29 06:02:54;;;;;;;1.70;0.80;;;;;;;;;;4989467;28;20205;-61
2022/05/29 06:05:21;;;;;;;2.00;0.70;;;;;;;;;;4988933;28;20229;-62
2022/05/29 06:07:50;;;;;;;2.07;0.80;;;;;;;;;;4988734;28;20229;-61
2022/05/29 06:10:18;;;;;;;2.17;0.90;;;;;;;;;;4989407;28;20209;-63
2022/05/29 06:12:45;;;;;;;2.30;0.93;;;;;;;;;;4989594;28;20240;-62
2022/05/29 06:15:12;;;;;;;0.77;0.60;;;;;;;;;;4989225;28;20206;-62
2022/05/29 06:17:39;;;;;;;2.30;0.47;;;;;;;;;;4985939;28;20210;-61
2022/05/29 06:20:07;;;;;;;1.90;0.53;;;;;;;;;;4989119;28;20233;-62
2022/05/29 06:22:37;;;;;;;0.87;0.70;;;;;;;;;;4989175;28;20733;-62
2022/05/29 06:25:06;;;;;;;4.10;0.50;;;;;;;;;;4988114;28;20260;-62
2022/05/29 06:27:36;;;;;;;0.90;0.47;;;;;;;;;;4988684;28;20252;-62
2022/05/29 06:30:04;;;;;;;2.10;0.67;;;;;;;;;;4988450;28;20272;-61
2022/05/29 06:32:31;;;;;;;0.50;0.50;;;;;;;;;;4988773;28;20205;-61
2022/05/29 06:34:59;;;;;;;0.75;0.68;;;;;;;;;;4988472;28;20645;-61
2022/05/29 06:37:26;;;;;;;2.73;0.63;;;;;;;;;;4986259;28;20279;-62
2022/05/29 06:39:53;;;;;;;2.47;0.85;;;;;;;;;;4987863;28;20240;-62
2022/05/29 06:42:21;;;;;;;0.50;0.40;;;;;;;;;;4988672;28;20710;-61
2022/05/29 06:44:48;;;;;;;0.98;0.52;;;;;;;;;;4988293;28;20209;-64
2022/05/29 06:47:15;;;;;;;1.25;0.40;;;;;;;;;;4988683;28;20213;-62
2022/05/29 06:49:42;;;;;;;0.40;0.40;;;;;;;;;;4988306;28;20202;-61
2022/05/29 06:52:12;;;;;;;1.67;0.55;;;;;;;;;;4991567;28;20217;-62
2022/05/29 06:54:39;;;;;;;1.65;0.60;;;;;;;;;;4992216;28;20197;-60
2022/05/29 06:57:07;;;;;;;0.60;0.60;;;;;;;;;;4992361;28;20205;-61
2022/05/29 07:06:58;;;;;;;1.58;0.40;;;;;;;;;;4992122;28;20253;-62
2022/05/29 07:07:58;;;;;;;2.28;0.50;;;;;;;;;;4991614;28;20251;-61
2022/05/29 07:10:25;;;;;;;0.68;0.43;;;;;;;;;;4991464;28;20210;-60
2022/05/29 07:12:52;;;;;;;2.10;0.57;;;;;;;;;;4991880;28;20243;-60
2022/05/29 07:15:21;;;;;;;2.80;0.52;;;;;;;;;;4992099;28;20224;-61
2022/05/29 07:17:49;;;;;;;0.60;0.60;;;;;;;;;;4991523;28;20217;-60
2022/05/29 07:20:17;;;;;;;0.85;0.85;;;;;;;;;;4972632;28;20325;-59
2022/05/29 07:22:44;;;;;;;1.50;0.47;;;;;;;;;;4974822;28;20723;-60
2022/05/29 07:25:11;;;;;;;1.75;0.40;;;;;;;;;;4991621;28;20275;-61
2022/05/29 07:27:38;;;;;;;0.52;0.52;;;;;;;;;;4991450;28;20236;-60
2022/05/29 07:30:05;;;;;;;1.65;0.50;;;;;;;;;;4991440;28;20253;-60
2022/05/29 07:32:34;;;;;;;1.30;0.60;;;;;;;;;;4990519;28;20217;-61
2022/05/29 07:35:01;;;;;;;3.60;0.80;;;;;;;;;;4989116;28;20556;-61
2022/05/29 07:37:28;;;;;;;1.73;0.43;;;;;;;;;;4973219;28;20213;-61
2022/05/29 07:39:55;;;;;;;0.55;0.55;;;;;;;;;;4991705;28;20699;-60
2022/05/29 07:45:09;;;;;;;2.08;0.65;;;;;;;;;;4991472;28;20217;-59
2022/05/29 07:47:40;;;;;;;0.60;0.57;;;;;;;;;;4990926;28;20214;-59
2022/05/29 07:50:08;;;;;;;0.90;0.68;;;;;;;;;;4991332;28;20198;-59
2022/05/29 07:52:35;;;;;;;2.60;0.50;;;;;;;;;;4990967;28;20284;-59
2022/05/29 07:55:02;;;;;;;1.33;0.65;;;;;;;;;;4991014;28;20245;-60
2022/05/29 07:57:29;;;;;;;0.73;0.52;;;;;;;;;;4979841;28;20210;-60
2022/05/29 07:59:56;;;;;;;1.95;0.60;;;;;;;;;;4990923;28;20241;-61
2022/05/29 08:02:23;;;;;;;0.32;0.30;;;;;;;;;;4990185;28;20327;-61
2022/05/29 08:04:52;;;;;;;0.40;0.40;;;;;;;;;;4990645;28;20209;-60
2022/05/29 08:07:21;;;;;;;0.50;0.50;;;;;;;;;;4991183;28;20220;-60
2022/05/29 08:09:48;;;;;;;0.73;0.40;;;;;;;;;;4991135;28;20256;-60
2022/05/29 08:12:15;;;;;;;1.08;0.40;;;;;;;;;;4990477;28;20206;-60
2022/05/29 08:14:42;;;;;;;1.17;0.50;;;;;;;;;;4984122;28;20214;-61
2022/05/29 08:17:09;;;;;;;0.50;0.50;;;;;;;;;;4990847;28;20661;-60
2022/05/29 08:19:36;;;;;;;0.60;0.60;;;;;;;;;;4990706;28;20774;-61
2022/05/29 08:22:05;;;;;;;2.53;0.40;;;;;;;;;;4990782;28;20580;-61
2022/05/29 08:33:01;;;;;;;0.82;0.63;;;;;;;;;;4976676;28;20244;-59
2022/05/29 08:35:28;;;;;;;1.98;0.63;;;;;;;;;;4990658;28;20206;-60
2022/05/29 08:37:57;;;;;;;1.13;0.60;;;;;;;;;;4989923;28;20272;-61
2022/05/29 08:40:24;;;;;;;0.40;0.40;;;;;;;;;;4990448;28;20229;-60
2022/05/29 08:42:51;;;;;;;1.55;0.40;;;;;;;;;;4990006;28;20209;-61
2022/05/29 08:45:19;;;;;;;1.13;0.60;;;;;;;;;;4990565;28;20210;-60
2022/05/29 08:47:46;;;;;;;1.00;0.50;;;;;;;;;;4990311;28;20209;-60
2022/05/29 08:50:18;;;;;;;0.73;0.47;;;;;;;;;;4990233;28;20201;-60
2022/05/29 08:52:49;;;;;;;1.65;0.30;;;;;;;;;;4990024;28;20213;-58
2022/05/29 08:55:21;;;;;;;0.63;0.40;;;;;;;;;;4990303;28;20205;-59
2022/05/29 08:58:00;;;;;;;0.20;0.20;;;;;;;;;;4989861;28;20232;-58
2022/05/29 09:00:31;;;;;;;0.63;0.30;;;;;;;;;;4970564;28;20667;-66
2022/05/29 09:03:05;;;;;;;0.75;0.30;;;;;;;;;;4985892;28;20205;-63
2022/05/29 09:05:35;;;;;;;0.30;0.30;;;;;;;;;;4990042;28;20333;-58
2022/05/29 09:08:04;;;;;;;0.85;0.20;;;;;;;;;;4989775;28;20224;-59
2022/05/29 09:10:34;;;;;;;0.32;0.32;;;;;;;;;;4989922;28;20209;-59
2022/05/29 09:13:05;;;;;;;0.52;0.35;;;;;;;;;;4989629;28;20212;-59
2022/05/29 09:15:34;;;;;;;0.40;0.40;;;;;;;;;;4989851;28;20225;-59
2022/05/29 09:18:03;;;;;;;0.93;0.43;;;;;;;;;;4989777;28;20574;-59
2022/05/29 09:20:32;;;;;;;2.28;0.43;;;;;;;;;;4989584;28;20233;-58
2022/05/29 09:23:01;;;;;;;0.40;0.40;;;;;;;;;;4989593;28;20209;-59
2022/05/29 09:25:32;;;;;;;0.47;0.35;;;;;;;;;;4989472;28;20202;-59
2022/05/29 09:28:02;;;;;;;0.50;0.30;;;;;;;;;;4989484;28;20209;-59
2022/05/29 09:30:29;;;;;;;1.17;0.40;;;;;;;;;;4989335;28;20313;-59
2022/05/29 09:32:57;;;;;;;0.52;0.40;;;;;;;;;;4988527;28;20210;-59
2022/05/29 09:35:27;;;;;;;0.30;0.30;;;;;;;;;;4989126;28;20218;-59
2022/05/29 09:37:58;;;;;;;0.52;0.30;;;;;;;;;;4988670;28;20221;-59
2022/05/29 09:40:28;;;;;;;0.40;0.40;;;;;;;;;;4988888;28;20233;-61
2022/05/29 09:42:55;;;;;;;0.20;0.20;;;;;;;;;;4988480;28;20221;-58
2022/05/29 09:45:28;;;;;;;1.90;0.57;;;;;;;;;;4987575;28;20217;-60
2022/05/29 09:50:42;;;;;;;1.38;0.30;;;;;;;;;;4988180;28;20216;-60
2022/05/29 09:53:11;;;;;;;0.90;0.40;;;;;;;;;;4983532;28;20211;-59
2022/05/29 09:55:42;;;;;;;1.10;0.40;;;;;;;;;;4983164;28;20229;-59
2022/05/29 09:58:10;;;;;;;0.35;0.20;;;;;;;;;;4981484;28;20251;-58
2022/05/29 10:00:42;;;;;;;0.68;0.40;;;;;;;;;;4988247;28;20233;-57
2022/05/29 10:03:12;;;;;;;382.52;114.25;;;;;;;;;;4988795;28;20205;-58
2022/05/29 10:05:40;;;;;;;76.45;17.67;;;;;;;;;;4988277;28;20614;-59
2022/05/29 10:08:22;;;;;;;67.25;17.13;;;;;;;;;;4988384;28;20210;-58
2022/05/29 10:10:49;;;;;;;8.70;2.22;;;;;;;;;;4985311;28;20202;-59
2022/05/29 10:13:35;;;;;;;11.77;4.25;;;;;;;;;;4988726;28;20213;-58
2022/05/29 10:16:04;;;;;;;1.27;0.60;;;;;;;;;;4988195;28;20614;-62
2022/05/29 10:18:33;;;;;;;2.95;1.00;;;;;;;;;;4988796;28;20213;-61
2022/05/29 10:21:08;;;;;;;0.40;0.40;;;;;;;;;;4987590;28;20233;-62
2022/05/29 10:23:37;;;;;;;0.85;0.50;;;;;;;;;;4984325;28;20775;-61
2022/05/29 10:26:08;;;;;;;0.55;0.28;;;;;;;;;;4982913;28;20732;-62
2022/05/29 10:28:38;;;;;;;17.38;4.18;;;;;;;;;;4978564;28;20223;-61
2022/05/29 10:31:07;;;;;;;5.80;1.95;;;;;;;;;;4982865;28;20249;-62
2022/05/29 10:33:34;;;;;;;6.63;2.40;;;;;;;;;;4988277;28;20694;-64
2022/05/29 10:36:11;;;;;;;1.30;0.85;;;;;;;;;;4988520;28;20694;-59
2022/05/29 10:38:38;;;;;;;2.30;1.10;;;;;;;;;;4987278;28;20621;-58
2022/05/29 10:41:07;;;;;;;1.98;0.50;;;;;;;;;;4986460;28;20233;-65
2022/05/29 10:43:36;;;;;;;1.20;0.45;;;;;;;;;;4985427;28;20205;-62
2022/05/29 10:46:04;;;;;;;1.27;0.40;;;;;;;;;;4983151;28;20205;-59
2022/05/29 10:48:42;;;;;;;0.75;0.32;;;;;;;;;;4988511;28;20205;-62
2022/05/29 10:51:13;;;;;;;0.55;0.50;;;;;;;;;;4985021;28;20234;-59
2022/05/29 10:53:47;;;;;;;0.63;0.60;;;;;;;;;;4987256;28;20217;-59
2022/05/29 10:56:18;;;;;;;0.75;0.50;;;;;;;;;;4983269;28;20203;-61
2022/05/29 10:58:52;;;;;;;0.57;0.57;;;;;;;;;;4968434;28;20321;-59
2022/05/29 11:04:22;;;;;;;0.57;0.57;;;;;;;;;;4979228;28;20286;-59
2022/05/29 11:07:05;;;;;;;0.30;0.30;;;;;;;;;;4987133;28;20206;-59
2022/05/29 11:09:43;;;;;;;0.43;0.43;;;;;;;;;;4987511;28;20580;-58
2022/05/29 11:12:13;;;;;;;0.73;0.73;;;;;;;;;;4987213;28;20217;-58
2022/05/29 11:14:52;;;;;;;1.08;0.95;;;;;;;;;;4987608;28;20220;-58
2022/05/29 11:17:24;;;;;;;0.30;0.30;;;;;;;;;;4985931;28;20767;-58
2022/05/29 11:20:00;;;;;;;0.47;0.47;;;;;;;;;;4987169;28;20205;-58
2022/05/29 11:22:31;;;;;;;0.80;0.40;;;;;;;;;;4987169;28;20209;-58
2022/05/29 11:25:06;;;;;;;0.38;0.38;;;;;;;;;;4987447;28;20575;-58
2022/05/29 11:27:48;;;;;;;0.57;0.55;;;;;;;;;;4987276;28;20328;-58
2022/05/29 11:30:18;;;;;;;0.30;0.30;;;;;;;;;;4987450;28;20291;-59
2022/05/29 11:32:58;;;;;;;0.60;0.40;;;;;;;;;;4987606;28;20240;-58
2022/05/29 11:35:36;;;;;;;0.20;0.20;;;;;;;;;;4987226;28;20201;-58
2022/05/29 11:38:20;;;;;;;1.52;0.50;;;;;;;;;;4989021;28;20267;-58
2022/05/29 11:40:48;;;;;;;0.20;0.20;;;;;;;;;;4990292;28;20233;-58
2022/05/29 11:43:20;;;;;;;0.52;0.43;;;;;;;;;;4991258;28;20246;-58
2022/05/29 11:51:24;;;;;;;0.52;0.32;;;;;;;;;;4990452;28;20228;-61
2022/05/29 11:53:53;;;;;;;0.40;0.40;;;;;;;;;;4990092;28;20209;-58
2022/05/29 11:56:23;;;;;;;0.40;0.40;;;;;;;;;;4990205;28;20227;-61
2022/05/29 11:58:54;;;;;;;0.50;0.47;;;;;;;;;;4990370;28;20213;-58
2022/05/29 12:01:23;;;;;;;1.17;0.40;;;;;;;;;;4979021;28;20229;-58
2022/05/29 12:03:53;;;;;;;0.30;0.30;;;;;;;;;;4975869;28;20213;-58
2022/05/29 12:06:24;;;;;;;0.90;0.40;;;;;;;;;;4990275;28;20210;-60
2022/05/29 12:08:55;;;;;;;0.60;0.60;;;;;;;;;;4990609;28;20584;-60
2022/05/29 12:11:30;;;;;;;0.40;0.30;;;;;;;;;;4990480;28;20612;-58
2022/05/29 12:14:00;;;;;;;0.50;0.50;;;;;;;;;;4989998;28;20201;-61
2022/05/29 12:16:28;;;;;;;0.32;0.32;;;;;;;;;;4990736;28;20221;-58
2022/05/29 12:18:57;;;;;;;0.90;0.50;;;;;;;;;;4990115;28;20342;-58
2022/05/29 12:21:28;;;;;;;1.60;0.40;;;;;;;;;;4990138;28;20230;-58
2022/05/29 12:23:59;;;;;;;0.52;0.40;;;;;;;;;;4989938;28;20214;-58
2022/05/29 12:26:29;;;;;;;0.20;0.20;;;;;;;;;;4990107;28;20226;-59
2022/05/29 12:28:59;;;;;;;0.50;0.30;;;;;;;;;;4989868;28;20206;-58
2022/05/29 12:31:31;;;;;;;0.30;0.30;;;;;;;;;;4989775;28;20591;-58
2022/05/29 12:33:59;;;;;;;0.80;0.52;;;;;;;;;;4990151;28;20706;-58
2022/05/29 12:36:36;;;;;;;0.30;0.30;;;;;;;;;;4990120;28;20689;-58
2022/05/29 12:39:09;;;;;;;1.38;0.88;;;;;;;;;;4989098;28;20653;-59
2022/05/29 12:41:49;;;;;;;0.63;0.63;;;;;;;;;;4989543;28;20827;-58
2022/05/29 12:44:31;;;;;;;0.38;0.38;;;;;;;;;;4990083;28;20220;-58
2022/05/29 12:47:10;;;;;;;1.30;0.65;;;;;;;;;;4986454;28;20206;-59
2022/05/29 12:49:48;;;;;;;0.40;0.40;;;;;;;;;;4988153;28;20216;-59
2022/05/29 12:52:17;;;;;;;0.30;0.30;;;;;;;;;;4989683;28;20216;-59
2022/05/29 12:55:03;;;;;;;0.52;0.40;;;;;;;;;;4989093;28;20305;-59
2022/05/29 12:57:55;;;;;;;0.40;0.30;;;;;;;;;;4989452;28;20432;-60
2022/05/29 13:00:30;;;;;;;0.45;0.40;;;;;;;;;;4989184;28;20236;-59
2022/05/29 13:03:09;;;;;;;0.30;0.30;;;;;;;;;;4988544;28;20217;-59
2022/05/29 13:06:04;;;;;;;0.30;0.30;;;;;;;;;;4988997;28;20213;-59
2022/05/29 13:08:41;;;;;;;0.60;0.30;;;;;;;;;;4943533;28;20304;-59
2022/05/29 13:11:09;;;;;;;1.80;0.52;;;;;;;;;;4988732;28;20741;-58
2022/05/29 13:13:41;;;;;;;0.63;0.50;;;;;;;;;;4988479;28;20213;-59
2022/05/29 13:16:22;;;;;;;0.50;0.50;;;;;;;;;;4988789;28;20266;-59
2022/05/29 13:19:06;;;;;;;0.65;0.50;;;;;;;;;;4988602;28;20259;-59
2022/05/29 13:21:33;;;;;;;0.52;0.47;;;;;;;;;;4988781;28;20328;-58
2022/05/29 13:24:00;;;;;;;1.33;0.40;;;;;;;;;;4988655;28;20214;-59
2022/05/29 13:26:28;;;;;;;0.57;0.57;;;;;;;;;;4989054;28;20642;-58
2022/05/29 13:28:59;;;;;;;0.40;0.40;;;;;;;;;;4988594;28;20210;-59
2022/05/29 13:31:27;;;;;;;0.52;0.52;;;;;;;;;;4988820;28;20704;-59
2022/05/29 13:33:57;;;;;;;0.40;0.40;;;;;;;;;;4988649;28;20202;-59
2022/05/29 13:36:39;;;;;;;0.40;0.40;;;;;;;;;;4988883;28;20328;-59
2022/05/29 13:39:08;;;;;;;1.27;0.35;;;;;;;;;;4972619;28;20205;-59
2022/05/29 13:41:52;;;;;;;1.55;0.45;;;;;;;;;;4988509;28;20240;-59
2022/05/29 13:44:33;;;;;;;0.43;0.40;;;;;;;;;;4988678;28;20205;-61
2022/05/29 13:47:19;;;;;;;2.17;0.55;;;;;;;;;;4986273;28;20221;-59
2022/05/29 13:49:48;;;;;;;0.65;0.40;;;;;;;;;;4988351;28;20210;-59
2022/05/29 13:52:17;;;;;;;0.45;0.45;;;;;;;;;;4988944;28;20252;-59
2022/05/29 13:54:44;;;;;;;0.50;0.50;;;;;;;;;;4987947;28;20206;-59
2022/05/29 14:03:57;;;;;;;0.68;0.68;;;;;;;;;;4988672;28;20221;-59
2022/05/29 14:05:46;;;;;;;0.50;0.50;;;;;;;;;;4988040;28;20204;-59
2022/05/29 14:08:28;;;;;;;0.57;0.57;;;;;;;;;;4987777;28;20222;-59
2022/05/29 14:11:07;;;;;;;1.27;0.50;;;;;;;;;;4983715;28;20202;-58
2022/05/29 14:13:36;;;;;;;0.40;0.40;;;;;;;;;;4987786;28;20210;-59
2022/05/29 14:16:04;;;;;;;0.52;0.32;;;;;;;;;;4987011;28;20256;-59
2022/05/29 14:18:34;;;;;;;0.50;0.50;;;;;;;;;;4987348;28;20511;-59
2022/05/29 14:21:20;;;;;;;1.30;0.50;;;;;;;;;;4985391;28;20230;-59
2022/05/29 14:23:56;;;;;;;0.90;0.90;;;;;;;;;;4987566;28;20623;-59
2022/05/29 14:26:49;;;;;;;0.60;0.60;;;;;;;;;;4987861;28;20225;-59
2022/05/29 14:29:31;;;;;;;0.50;0.50;;;;;;;;;;4988611;28;20268;-60
2022/05/29 14:32:03;;;;;;;1.40;0.52;;;;;;;;;;4985347;28;20209;-59
2022/05/29 14:34:35;;;;;;;0.80;0.80;;;;;;;;;;4988629;28;20225;-59
2022/05/29 14:37:20;;;;;;;0.77;0.77;;;;;;;;;;4988280;28;20210;-59
2022/05/29 14:39:51;;;;;;;0.40;0.40;;;;;;;;;;4988308;28;20653;-59
2022/05/29 14:42:21;;;;;;;0.50;0.50;;;;;;;;;;4987212;28;20234;-59
2022/05/29 14:44:50;;;;;;;0.60;0.60;;;;;;;;;;4987847;28;20241;-59
2022/05/29 14:47:19;;;;;;;0.60;0.60;;;;;;;;;;4986950;28;20206;-61
2022/05/29 14:49:50;;;;;;;2.05;0.63;;;;;;;;;;4987336;28;20235;-61
2022/05/29 14:52:20;;;;;;;0.77;0.60;;;;;;;;;;4987951;28;20206;-61
2022/05/29 14:54:48;;;;;;;0.50;0.50;;;;;;;;;;4987675;28;20209;-61
2022/05/29 14:57:18;;;;;;;0.50;0.50;;;;;;;;;;4988067;28;20246;-61
2022/05/29 14:59:45;;;;;;;0.60;0.60;;;;;;;;;;4987909;28;20209;-61
2022/05/29 15:02:20;;;;;;;0.50;0.50;;;;;;;;;;4987918;28;20324;-61
2022/05/29 15:04:49;;;;;;;1.05;0.50;;;;;;;;;;4987926;28;20554;-61
2022/05/29 15:12:56;;;;;;;0.40;0.40;;;;;;;;;;4986649;28;20212;-61
2022/05/29 15:15:26;;;;;;;0.60;0.60;;;;;;;;;;4991413;28;20202;-61
2022/05/29 15:17:53;;;;;;;1.70;0.70;;;;;;;;;;4991489;28;20309;-61
2022/05/29 15:26:00;;;;;;;0.93;0.90;;;;;;;;;;4991341;28;20240;-60
2022/05/29 15:28:28;;;;;;;0.90;0.90;;;;;;;;;;4991194;28;20209;-61
2022/05/29 15:30:55;;;;;;;2.25;1.02;;;;;;;;;;4990929;28;20237;-61
2022/05/29 15:33:24;;;;;;;0.90;0.90;;;;;;;;;;4991092;28;20415;-60
2022/05/29 15:35:54;;;;;;;0.85;0.85;;;;;;;;;;4991102;28;20213;-61
2022/05/29 15:38:25;;;;;;;1.10;1.00;;;;;;;;;;4991057;28;20213;-61
2022/05/29 15:40:57;;;;;;;1.02;1.02;;;;;;;;;;4990909;28;20226;-61
2022/05/29 15:43:30;;;;;;;1.17;1.15;;;;;;;;;;4990983;28;20902;-61
2022/05/29 15:46:04;;;;;;;1.15;1.15;;;;;;;;;;4974168;28;20295;-60
2022/05/29 15:48:46;;;;;;;1.05;0.85;;;;;;;;;;4990930;28;20209;-60
2022/05/29 15:51:15;;;;;;;1.13;1.13;;;;;;;;;;4990834;28;20202;-61
2022/05/29 15:53:52;;;;;;;1.05;1.05;;;;;;;;;;4990700;28;20217;-60